sensor_id;sensor_type;location;lat;lon;timestamp;temperature;humidity
35635;DHT22;21757;43.610;1.440;2022-09-03T00:00:23;22.50;99.90
35635;DHT22;21757;43.610;1.440;2022-09-03T00:03:07;22.50;99.90
35635;DHT22;21757;43.610;1.440;2022-09-03T00:05:48;22.50;99.90
35635;DHT22;21757;43.610;1.440;2022-09-03T00:08:24;22.50;99.90
35635;DHT22;21757;43.610;1.440;2022-09-03T00:11:15;22.40;99.90
35635;DHT22;21757;43.610;1.440;2022-09-03T00:14:06;22.30;99.90
35635;DHT22;21757;43.610;1.440;2022-09-03T00:16:47;22.30;99.90
35635;DHT22;21757;43.610;1.440;2022-09-03T00:19:17;22.20;99.90
35635;DHT22;21757;43.610;1.440;2022-09-03T00:22:03;22.20;99.90
35635;DHT22;21757;43.610;1.440;2022-09-03T00:24:35;22.10;99.90
35635;DHT22;21757;43.610;1.440;2022-09-03T00:27:05;22.00;99.90
35635;DHT22;21757;43.610;1.440;2022-09-03T00:29:36;21.90;99.90
35635;DHT22;21757;43.610;1.440;2022-09-03T00:32:12;21.80;99.90
35635;DHT22;21757;43.610;1.440;2022-09-03T00:34:42;21.70;99.90
35635;DHT22;21757;43.610;1.440;2022-09-03T00:37:10;21.70;99.90
35635;DHT22;21757;43.610;1.440;2022-09-03T00:39:36;21.60;99.90
35635;DHT22;21757;43.610;1.440;2022-09-03T01:12:14;22.00;99.90
35635;DHT22;21757;43.610;1.440;2022-09-03T01:15:06;22.00;99.90
35635;DHT22;21757;43.610;1.440;2022-09-03T01:27:17;21.80;99.90
35635;DHT22;21757;43.610;1.440;2022-09-03T01:30:12;21.80;99.90
35635;DHT22;21757;43.610;1.440;2022-09-03T01:33:10;21.80;99.90
35635;DHT22;21757;43.610;1.440;2022-09-03T01:38:37;21.80;99.90
35635;DHT22;21757;43.610;1.440;2022-09-03T01:41:09;21.60;99.90
35635;DHT22;21757;43.610;1.440;2022-09-03T01:44:04;21.40;99.90
35635;DHT22;21757;43.610;1.440;2022-09-03T01:46:39;21.50;99.90
35635;DHT22;21757;43.610;1.440;2022-09-03T01:51:55;21.40;99.90
35635;DHT22;21757;43.610;1.440;2022-09-03T01:57:32;21.30;99.90
35635;DHT22;21757;43.610;1.440;2022-09-03T02:00:14;21.50;99.90
35635;DHT22;21757;43.610;1.440;2022-09-03T02:02:42;21.40;99.90
35635;DHT22;21757;43.610;1.440;2022-09-03T02:05:11;21.20;99.90
35635;DHT22;21757;43.610;1.440;2022-09-03T02:07:58;21.20;99.90
35635;DHT22;21757;43.610;1.440;2022-09-03T02:13:06;21.30;99.90
35635;DHT22;21757;43.610;1.440;2022-09-03T02:15:37;21.40;99.90
35635;DHT22;21757;43.610;1.440;2022-09-03T02:18:09;21.20;99.90
35635;DHT22;21757;43.610;1.440;2022-09-03T02:20:35;21.20;99.90
35635;DHT22;21757;43.610;1.440;2022-09-03T02:23:02;21.30;99.90
35635;DHT22;21757;43.610;1.440;2022-09-03T02:25:40;21.10;99.90
35635;DHT22;21757;43.610;1.440;2022-09-03T02:28:08;21.20;99.90
35635;DHT22;21757;43.610;1.440;2022-09-03T02:30:34;21.20;99.90
35635;DHT22;21757;43.610;1.440;2022-09-03T02:33:01;21.20;99.90
35635;DHT22;21757;43.610;1.440;2022-09-03T02:35:27;21.20;99.90
35635;DHT22;21757;43.610;1.440;2022-09-03T02:37:53;21.20;99.90
35635;DHT22;21757;43.610;1.440;2022-09-03T02:40:19;21.10;99.90
35635;DHT22;21757;43.610;1.440;2022-09-03T02:42:46;21.10;99.90
35635;DHT22;21757;43.610;1.440;2022-09-03T02:45:28;21.20;99.90
35635;DHT22;21757;43.610;1.440;2022-09-03T02:47:56;21.20;99.90
35635;DHT22;21757;43.610;1.440;2022-09-03T02:50:23;21.00;99.90
35635;DHT22;21757;43.610;1.440;2022-09-03T02:52:50;21.10;99.90
35635;DHT22;21757;43.610;1.440;2022-09-03T02:55:16;21.00;99.90
35635;DHT22;21757;43.610;1.440;2022-09-03T02:57:42;21.00;99.90
35635;DHT22;21757;43.610;1.440;2022-09-03T03:00:08;21.10;99.90
35635;DHT22;21757;43.610;1.440;2022-09-03T03:02:34;21.20;99.90
35635;DHT22;21757;43.610;1.440;2022-09-03T03:04:59;21.10;99.90
35635;DHT22;21757;43.610;1.440;2022-09-03T03:07:28;21.10;99.90
35635;DHT22;21757;43.610;1.440;2022-09-03T03:09:56;20.90;99.90
35635;DHT22;21757;43.610;1.440;2022-09-03T03:12:21;20.80;99.90
35635;DHT22;21757;43.610;1.440;2022-09-03T03:14:47;20.90;99.90
35635;DHT22;21757;43.610;1.440;2022-09-03T03:17:15;20.90;99.90
35635;DHT22;21757;43.610;1.440;2022-09-03T03:19:41;20.90;99.90
35635;DHT22;21757;43.610;1.440;2022-09-03T03:22:07;20.80;99.90
35635;DHT22;21757;43.610;1.440;2022-09-03T03:24:32;20.90;99.90
35635;DHT22;21757;43.610;1.440;2022-09-03T03:26:58;20.90;99.90
35635;DHT22;21757;43.610;1.440;2022-09-03T03:29:24;21.00;99.90
35635;DHT22;21757;43.610;1.440;2022-09-03T03:31:50;21.00;99.90
35635;DHT22;21757;43.610;1.440;2022-09-03T03:34:16;21.00;99.90
35635;DHT22;21757;43.610;1.440;2022-09-03T03:36:41;21.00;99.90
35635;DHT22;21757;43.610;1.440;2022-09-03T03:39:07;20.90;99.90
35635;DHT22;21757;43.610;1.440;2022-09-03T03:41:34;20.90;99.90
35635;DHT22;21757;43.610;1.440;2022-09-03T03:44:06;20.80;99.90
35635;DHT22;21757;43.610;1.440;2022-09-03T03:46:40;20.90;99.90
35635;DHT22;21757;43.610;1.440;2022-09-03T03:49:07;20.90;99.90
35635;DHT22;21757;43.610;1.440;2022-09-03T03:51:33;20.90;99.90
35635;DHT22;21757;43.610;1.440;2022-09-03T03:53:59;20.80;99.90
35635;DHT22;21757;43.610;1.440;2022-09-03T03:56:25;20.80;99.90
35635;DHT22;21757;43.610;1.440;2022-09-03T03:58:52;20.80;99.90
35635;DHT22;21757;43.610;1.440;2022-09-03T04:01:23;20.70;99.90
35635;DHT22;21757;43.610;1.440;2022-09-03T04:03:50;20.70;99.90
35635;DHT22;21757;43.610;1.440;2022-09-03T04:06:17;20.70;99.90
35635;DHT22;21757;43.610;1.440;2022-09-03T04:08:45;20.70;99.90
35635;DHT22;21757;43.610;1.440;2022-09-03T04:11:14;20.60;99.90
35635;DHT22;21757;43.610;1.440;2022-09-03T04:13:41;20.70;99.90
35635;DHT22;21757;43.610;1.440;2022-09-03T04:16:12;20.60;99.90
35635;DHT22;21757;43.610;1.440;2022-09-03T04:18:39;20.60;99.90
35635;DHT22;21757;43.610;1.440;2022-09-03T04:23:36;20.70;99.90
35635;DHT22;21757;43.610;1.440;2022-09-03T04:26:03;20.80;99.90
35635;DHT22;21757;43.610;1.440;2022-09-03T04:28:30;20.90;99.90
35635;DHT22;21757;43.610;1.440;2022-09-03T04:31:00;20.80;99.90
35635;DHT22;21757;43.610;1.440;2022-09-03T04:33:26;20.80;99.90
35635;DHT22;21757;43.610;1.440;2022-09-03T04:35:52;21.00;99.90
35635;DHT22;21757;43.610;1.440;2022-09-03T04:38:17;21.00;99.90
35635;DHT22;21757;43.610;1.440;2022-09-03T04:40:50;20.90;99.90
35635;DHT22;21757;43.610;1.440;2022-09-03T04:43:15;20.70;99.90
35635;DHT22;21757;43.610;1.440;2022-09-03T04:45:41;20.60;99.90
35635;DHT22;21757;43.610;1.440;2022-09-03T04:48:07;20.60;99.90
35635;DHT22;21757;43.610;1.440;2022-09-03T04:50:34;20.60;99.90
35635;DHT22;21757;43.610;1.440;2022-09-03T04:53:01;20.70;99.90
35635;DHT22;21757;43.610;1.440;2022-09-03T04:55:31;20.80;99.90
35635;DHT22;21757;43.610;1.440;2022-09-03T04:57:58;20.90;99.90
35635;DHT22;21757;43.610;1.440;2022-09-03T05:00:24;20.90;99.90
35635;DHT22;21757;43.610;1.440;2022-09-03T05:02:49;20.80;99.90
35635;DHT22;21757;43.610;1.440;2022-09-03T05:05:17;20.80;99.90
35635;DHT22;21757;43.610;1.440;2022-09-03T05:07:43;20.80;99.90
35635;DHT22;21757;43.610;1.440;2022-09-03T05:10:10;20.50;99.90
35635;DHT22;21757;43.610;1.440;2022-09-03T05:12:46;20.60;99.90
35635;DHT22;21757;43.610;1.440;2022-09-03T05:15:14;20.60;99.90
35635;DHT22;21757;43.610;1.440;2022-09-03T05:17:40;20.40;99.90
35635;DHT22;21757;43.610;1.440;2022-09-03T05:20:06;20.30;99.90
35635;DHT22;21757;43.610;1.440;2022-09-03T05:22:34;20.50;99.90
35635;DHT22;21757;43.610;1.440;2022-09-03T05:25:00;20.50;99.90
35635;DHT22;21757;43.610;1.440;2022-09-03T05:27:26;20.60;99.90
35635;DHT22;21757;43.610;1.440;2022-09-03T05:29:51;20.60;99.90
35635;DHT22;21757;43.610;1.440;2022-09-03T05:32:17;20.60;99.90
35635;DHT22;21757;43.610;1.440;2022-09-03T05:34:43;20.70;99.90
35635;DHT22;21757;43.610;1.440;2022-09-03T05:37:09;20.60;99.90
35635;DHT22;21757;43.610;1.440;2022-09-03T05:39:36;20.60;99.90
35635;DHT22;21757;43.610;1.440;2022-09-03T05:42:01;20.70;99.90
35635;DHT22;21757;43.610;1.440;2022-09-03T05:44:27;20.80;99.90
35635;DHT22;21757;43.610;1.440;2022-09-03T05:46:53;20.80;99.90
35635;DHT22;21757;43.610;1.440;2022-09-03T05:49:19;20.70;99.90
35635;DHT22;21757;43.610;1.440;2022-09-03T05:51:45;20.50;99.90
35635;DHT22;21757;43.610;1.440;2022-09-03T05:54:11;20.60;99.90
35635;DHT22;21757;43.610;1.440;2022-09-03T05:56:38;20.60;99.90
35635;DHT22;21757;43.610;1.440;2022-09-03T05:59:08;20.80;99.90
35635;DHT22;21757;43.610;1.440;2022-09-03T06:01:39;20.80;99.90
35635;DHT22;21757;43.610;1.440;2022-09-03T06:04:08;20.90;99.90
35635;DHT22;21757;43.610;1.440;2022-09-03T06:06:35;20.90;99.90
35635;DHT22;21757;43.610;1.440;2022-09-03T06:09:04;20.90;99.90
35635;DHT22;21757;43.610;1.440;2022-09-03T06:11:31;20.90;99.90
35635;DHT22;21757;43.610;1.440;2022-09-03T06:13:59;21.00;99.90
35635;DHT22;21757;43.610;1.440;2022-09-03T06:16:26;21.10;99.90
35635;DHT22;21757;43.610;1.440;2022-09-03T06:18:52;21.10;99.90
35635;DHT22;21757;43.610;1.440;2022-09-03T06:21:18;21.10;99.90
35635;DHT22;21757;43.610;1.440;2022-09-03T06:23:48;21.20;99.90
35635;DHT22;21757;43.610;1.440;2022-09-03T06:26:16;21.00;99.90
35635;DHT22;21757;43.610;1.440;2022-09-03T06:28:43;21.00;99.90
35635;DHT22;21757;43.610;1.440;2022-09-03T06:31:11;21.00;99.90
35635;DHT22;21757;43.610;1.440;2022-09-03T06:33:38;21.10;99.90
35635;DHT22;21757;43.610;1.440;2022-09-03T06:36:06;21.20;99.90
35635;DHT22;21757;43.610;1.440;2022-09-03T06:38:34;21.20;99.90
35635;DHT22;21757;43.610;1.440;2022-09-03T06:41:05;21.30;99.90
35635;DHT22;21757;43.610;1.440;2022-09-03T06:43:36;21.40;99.90
35635;DHT22;21757;43.610;1.440;2022-09-03T06:46:11;21.60;99.90
35635;DHT22;21757;43.610;1.440;2022-09-03T06:48:38;21.60;99.90
35635;DHT22;21757;43.610;1.440;2022-09-03T06:51:08;21.60;99.90
35635;DHT22;21757;43.610;1.440;2022-09-03T06:53:39;21.70;99.90
35635;DHT22;21757;43.610;1.440;2022-09-03T06:56:07;21.60;99.90
35635;DHT22;21757;43.610;1.440;2022-09-03T06:58:44;21.60;99.90
35635;DHT22;21757;43.610;1.440;2022-09-03T07:01:15;21.60;99.90
35635;DHT22;21757;43.610;1.440;2022-09-03T07:03:42;21.60;99.90
35635;DHT22;21757;43.610;1.440;2022-09-03T07:06:16;21.60;99.90
35635;DHT22;21757;43.610;1.440;2022-09-03T07:08:43;21.60;99.90
35635;DHT22;21757;43.610;1.440;2022-09-03T07:11:11;21.60;99.90
35635;DHT22;21757;43.610;1.440;2022-09-03T07:13:46;21.80;99.90
35635;DHT22;21757;43.610;1.440;2022-09-03T07:16:21;21.90;99.90
35635;DHT22;21757;43.610;1.440;2022-09-03T07:18:47;22.10;99.90
35635;DHT22;21757;43.610;1.440;2022-09-03T07:21:33;22.00;99.90
35635;DHT22;21757;43.610;1.440;2022-09-03T07:24:01;22.10;99.90
35635;DHT22;21757;43.610;1.440;2022-09-03T07:26:32;22.00;99.90
35635;DHT22;21757;43.610;1.440;2022-09-03T07:28:58;22.10;99.90
35635;DHT22;21757;43.610;1.440;2022-09-03T07:31:30;22.20;99.90
35635;DHT22;21757;43.610;1.440;2022-09-03T07:34:02;22.10;99.90
35635;DHT22;21757;43.610;1.440;2022-09-03T07:36:34;22.30;99.90
35635;DHT22;21757;43.610;1.440;2022-09-03T07:39:00;22.30;99.90
35635;DHT22;21757;43.610;1.440;2022-09-03T07:41:28;22.50;99.90
35635;DHT22;21757;43.610;1.440;2022-09-03T07:43:57;22.50;99.90
35635;DHT22;21757;43.610;1.440;2022-09-03T07:46:25;22.60;99.90
35635;DHT22;21757;43.610;1.440;2022-09-03T07:48:54;22.40;99.90
35635;DHT22;21757;43.610;1.440;2022-09-03T07:51:21;22.40;99.90
35635;DHT22;21757;43.610;1.440;2022-09-03T07:53:52;22.40;99.90
35635;DHT22;21757;43.610;1.440;2022-09-03T07:56:18;22.60;99.90
35635;DHT22;21757;43.610;1.440;2022-09-03T07:58:44;22.40;99.90
35635;DHT22;21757;43.610;1.440;2022-09-03T08:01:20;22.60;99.90
35635;DHT22;21757;43.610;1.440;2022-09-03T08:03:48;22.70;99.90
35635;DHT22;21757;43.610;1.440;2022-09-03T08:06:16;22.80;99.90
35635;DHT22;21757;43.610;1.440;2022-09-03T08:08:42;22.90;99.90
35635;DHT22;21757;43.610;1.440;2022-09-03T08:11:11;23.10;99.90
35635;DHT22;21757;43.610;1.440;2022-09-03T08:16:05;23.10;99.90
35635;DHT22;21757;43.610;1.440;2022-09-03T08:18:33;23.40;99.90
35635;DHT22;21757;43.610;1.440;2022-09-03T08:21:09;23.60;99.90
35635;DHT22;21757;43.610;1.440;2022-09-03T08:23:40;23.80;99.90
35635;DHT22;21757;43.610;1.440;2022-09-03T08:26:06;24.00;99.90
35635;DHT22;21757;43.610;1.440;2022-09-03T08:28:33;23.90;99.90
35635;DHT22;21757;43.610;1.440;2022-09-03T08:33:36;24.00;99.90
35635;DHT22;21757;43.610;1.440;2022-09-03T08:36:11;24.00;99.90
35635;DHT22;21757;43.610;1.440;2022-09-03T08:38:37;23.90;99.90
35635;DHT22;21757;43.610;1.440;2022-09-03T08:43:30;24.40;99.90
35635;DHT22;21757;43.610;1.440;2022-09-03T08:45:56;24.70;99.90
35635;DHT22;21757;43.610;1.440;2022-09-03T08:48:24;24.80;99.90
35635;DHT22;21757;43.610;1.440;2022-09-03T08:50:52;24.90;99.90
35635;DHT22;21757;43.610;1.440;2022-09-03T08:53:43;24.70;99.90
35635;DHT22;21757;43.610;1.440;2022-09-03T08:56:13;24.30;99.90
35635;DHT22;21757;43.610;1.440;2022-09-03T08:58:42;24.20;99.90
35635;DHT22;21757;43.610;1.440;2022-09-03T09:07:04;24.30;99.90
35635;DHT22;21757;43.610;1.440;2022-09-03T09:09:45;24.40;99.90
35635;DHT22;21757;43.610;1.440;2022-09-03T09:12:34;24.40;99.90
35635;DHT22;21757;43.610;1.440;2022-09-03T09:15:16;24.40;99.90
35635;DHT22;21757;43.610;1.440;2022-09-03T09:23:26;24.40;99.90
35635;DHT22;21757;43.610;1.440;2022-09-03T09:25:54;24.50;99.90
35635;DHT22;21757;43.610;1.440;2022-09-03T09:28:32;24.50;99.90
35635;DHT22;21757;43.610;1.440;2022-09-03T09:31:01;24.40;99.90
35635;DHT22;21757;43.610;1.440;2022-09-03T09:33:29;24.30;99.90
35635;DHT22;21757;43.610;1.440;2022-09-03T09:35:58;24.80;99.90
35635;DHT22;21757;43.610;1.440;2022-09-03T09:38:31;25.10;99.90
35635;DHT22;21757;43.610;1.440;2022-09-03T09:41:17;25.10;99.90
35635;DHT22;21757;43.610;1.440;2022-09-03T09:43:45;25.10;99.90
35635;DHT22;21757;43.610;1.440;2022-09-03T09:46:19;25.00;99.90
35635;DHT22;21757;43.610;1.440;2022-09-03T09:48:49;24.90;99.90
35635;DHT22;21757;43.610;1.440;2022-09-03T09:51:26;24.80;99.90
35635;DHT22;21757;43.610;1.440;2022-09-03T09:54:15;24.60;99.90
35635;DHT22;21757;43.610;1.440;2022-09-03T09:56:43;24.40;99.90
35635;DHT22;21757;43.610;1.440;2022-09-03T09:59:10;24.40;99.90
35635;DHT22;21757;43.610;1.440;2022-09-03T10:01:43;24.60;99.90
35635;DHT22;21757;43.610;1.440;2022-09-03T10:04:21;24.50;99.90
35635;DHT22;21757;43.610;1.440;2022-09-03T10:07:00;24.60;99.90
35635;DHT22;21757;43.610;1.440;2022-09-03T10:09:28;24.90;99.90
35635;DHT22;21757;43.610;1.440;2022-09-03T10:20:18;25.20;99.90
35635;DHT22;21757;43.610;1.440;2022-09-03T10:23:17;25.50;99.90
35635;DHT22;21757;43.610;1.440;2022-09-03T10:25:59;25.70;99.90
35635;DHT22;21757;43.610;1.440;2022-09-03T10:28:33;25.80;99.90
35635;DHT22;21757;43.610;1.440;2022-09-03T10:34:17;26.00;99.90
35635;DHT22;21757;43.610;1.440;2022-09-03T10:50:33;26.10;99.90
35635;DHT22;21757;43.610;1.440;2022-09-03T11:04:11;25.90;99.90
35635;DHT22;21757;43.610;1.440;2022-09-03T11:06:53;25.90;99.90
35635;DHT22;21757;43.610;1.440;2022-09-03T11:12:34;26.10;99.90
35635;DHT22;21757;43.610;1.440;2022-09-03T11:15:08;26.20;99.90
35635;DHT22;21757;43.610;1.440;2022-09-03T11:17:46;26.40;99.90
35635;DHT22;21757;43.610;1.440;2022-09-03T11:22:39;25.60;99.90
35635;DHT22;21757;43.610;1.440;2022-09-03T11:25:10;26.00;99.90
35635;DHT22;21757;43.610;1.440;2022-09-03T11:30:23;25.90;99.90
35635;DHT22;21757;43.610;1.440;2022-09-03T11:32:59;25.90;99.90
35635;DHT22;21757;43.610;1.440;2022-09-03T11:38:04;25.70;99.90
35635;DHT22;21757;43.610;1.440;2022-09-03T11:40:34;25.80;99.90
35635;DHT22;21757;43.610;1.440;2022-09-03T11:43:27;26.00;99.90
35635;DHT22;21757;43.610;1.440;2022-09-03T11:46:13;26.00;99.90
35635;DHT22;21757;43.610;1.440;2022-09-03T11:48:56;25.80;99.90
35635;DHT22;21757;43.610;1.440;2022-09-03T11:56:22;25.90;99.90
35635;DHT22;21757;43.610;1.440;2022-09-03T12:01:28;26.20;99.90
35635;DHT22;21757;43.610;1.440;2022-09-03T12:04:02;26.00;99.90
35635;DHT22;21757;43.610;1.440;2022-09-03T12:15:06;26.60;99.90
35635;DHT22;21757;43.610;1.440;2022-09-03T12:17:52;26.90;99.90
35635;DHT22;21757;43.610;1.440;2022-09-03T12:20:42;26.50;99.90
35635;DHT22;21757;43.610;1.440;2022-09-03T12:23:12;26.50;99.90
35635;DHT22;21757;43.610;1.440;2022-09-03T12:25:45;26.50;99.90
35635;DHT22;21757;43.610;1.440;2022-09-03T12:28:19;26.50;99.90
35635;DHT22;21757;43.610;1.440;2022-09-03T12:31:04;26.50;99.90
35635;DHT22;21757;43.610;1.440;2022-09-03T12:33:31;26.50;99.90
35635;DHT22;21757;43.610;1.440;2022-09-03T12:35:59;26.50;99.90
35635;DHT22;21757;43.610;1.440;2022-09-03T12:38:26;26.50;99.90
35635;DHT22;21757;43.610;1.440;2022-09-03T12:40:52;26.50;99.90
35635;DHT22;21757;43.610;1.440;2022-09-03T12:43:19;26.10;99.90
35635;DHT22;21757;43.610;1.440;2022-09-03T12:45:48;25.80;99.90
35635;DHT22;21757;43.610;1.440;2022-09-03T12:48:19;25.90;99.90
35635;DHT22;21757;43.610;1.440;2022-09-03T12:50:46;26.10;99.90
35635;DHT22;21757;43.610;1.440;2022-09-03T12:53:21;26.30;99.90
35635;DHT22;21757;43.610;1.440;2022-09-03T12:55:51;26.40;99.90
35635;DHT22;21757;43.610;1.440;2022-09-03T12:58:34;26.50;99.90
35635;DHT22;21757;43.610;1.440;2022-09-03T13:01:21;26.50;99.90
35635;DHT22;21757;43.610;1.440;2022-09-03T13:04:08;26.80;99.90
35635;DHT22;21757;43.610;1.440;2022-09-03T13:09:15;26.90;99.90
35635;DHT22;21757;43.610;1.440;2022-09-03T13:11:44;27.20;99.90
35635;DHT22;21757;43.610;1.440;2022-09-03T13:14:13;27.30;99.90
35635;DHT22;21757;43.610;1.440;2022-09-03T13:27:13;27.30;99.90
35635;DHT22;21757;43.610;1.440;2022-09-03T13:30:04;27.60;99.90
35635;DHT22;21757;43.610;1.440;2022-09-03T13:37:51;27.50;99.90
35635;DHT22;21757;43.610;1.440;2022-09-03T13:40:24;27.60;99.90
35635;DHT22;21757;43.610;1.440;2022-09-03T13:45:47;27.80;99.90
35635;DHT22;21757;43.610;1.440;2022-09-03T13:51:08;26.80;99.90
35635;DHT22;21757;43.610;1.440;2022-09-03T13:56:46;27.40;99.90
35635;DHT22;21757;43.610;1.440;2022-09-03T13:59:24;27.30;99.80
35635;DHT22;21757;43.610;1.440;2022-09-03T14:10:38;26.80;99.60
35635;DHT22;21757;43.610;1.440;2022-09-03T14:19:04;27.70;99.90
35635;DHT22;21757;43.610;1.440;2022-09-03T14:21:33;27.70;99.50
35635;DHT22;21757;43.610;1.440;2022-09-03T14:24:23;27.60;99.50
35635;DHT22;21757;43.610;1.440;2022-09-03T14:26:56;27.70;99.40
35635;DHT22;21757;43.610;1.440;2022-09-03T14:29:29;27.70;99.30
35635;DHT22;21757;43.610;1.440;2022-09-03T14:34:57;27.80;99.50
35635;DHT22;21757;43.610;1.440;2022-09-03T14:40:15;27.80;99.30
35635;DHT22;21757;43.610;1.440;2022-09-03T14:57:12;27.70;98.80
35635;DHT22;21757;43.610;1.440;2022-09-03T15:02:40;28.00;98.70
35635;DHT22;21757;43.610;1.440;2022-09-03T15:10:45;28.20;98.30
35635;DHT22;21757;43.610;1.440;2022-09-03T15:13:18;28.40;98.40
35635;DHT22;21757;43.610;1.440;2022-09-03T15:16:23;28.30;98.20
35635;DHT22;21757;43.610;1.440;2022-09-03T15:19:35;28.10;98.10
35635;DHT22;21757;43.610;1.440;2022-09-03T15:22:12;27.70;98.20
35635;DHT22;21757;43.610;1.440;2022-09-03T15:24:55;27.40;97.70
35635;DHT22;21757;43.610;1.440;2022-09-03T15:30:16;27.60;98.00
35635;DHT22;21757;43.610;1.440;2022-09-03T15:41:01;27.60;97.80
35635;DHT22;21757;43.610;1.440;2022-09-03T15:43:32;27.60;97.70
35635;DHT22;21757;43.610;1.440;2022-09-03T15:45:59;27.40;97.80
35635;DHT22;21757;43.610;1.440;2022-09-03T15:48:49;27.50;97.70
35635;DHT22;21757;43.610;1.440;2022-09-03T15:51:27;27.70;98.10
35635;DHT22;21757;43.610;1.440;2022-09-03T15:56:37;27.80;98.00
35635;DHT22;21757;43.610;1.440;2022-09-03T16:01:58;28.00;97.70
35635;DHT22;21757;43.610;1.440;2022-09-03T16:07:24;27.90;97.60
35635;DHT22;21757;43.610;1.440;2022-09-03T16:15:18;27.60;97.30
35635;DHT22;21757;43.610;1.440;2022-09-03T16:17:52;27.30;97.30
35635;DHT22;21757;43.610;1.440;2022-09-03T16:23:36;27.30;97.20
35635;DHT22;21757;43.610;1.440;2022-09-03T16:26:08;27.40;97.20
35635;DHT22;21757;43.610;1.440;2022-09-03T16:28:59;27.50;97.70
35635;DHT22;21757;43.610;1.440;2022-09-03T16:47:44;27.60;97.50
35635;DHT22;21757;43.610;1.440;2022-09-03T16:51:01;27.50;97.20
35635;DHT22;21757;43.610;1.440;2022-09-03T16:53:15;27.20;97.20
35635;DHT22;21757;43.610;1.440;2022-09-03T16:58:58;27.10;97.00
35635;DHT22;21757;43.610;1.440;2022-09-03T17:04:44;27.20;97.00
35635;DHT22;21757;43.610;1.440;2022-09-03T17:19:04;26.80;96.60
35635;DHT22;21757;43.610;1.440;2022-09-03T17:30:10;26.60;97.20
35635;DHT22;21757;43.610;1.440;2022-09-03T17:35:49;26.50;96.80
35635;DHT22;21757;43.610;1.440;2022-09-03T17:47:09;26.40;96.90
35635;DHT22;21757;43.610;1.440;2022-09-03T17:50:07;26.40;96.90
35635;DHT22;21757;43.610;1.440;2022-09-03T17:57:53;26.40;96.90
35635;DHT22;21757;43.610;1.440;2022-09-03T18:01:15;26.40;97.00
35635;DHT22;21757;43.610;1.440;2022-09-03T18:03:26;26.40;96.90
35635;DHT22;21757;43.610;1.440;2022-09-03T18:06:02;26.30;97.00
35635;DHT22;21757;43.610;1.440;2022-09-03T18:11:18;26.20;96.90
35635;DHT22;21757;43.610;1.440;2022-09-03T18:16:36;26.10;97.00
35635;DHT22;21757;43.610;1.440;2022-09-03T18:21:57;26.00;96.70
35635;DHT22;21757;43.610;1.440;2022-09-03T18:24:57;26.00;96.80
35635;DHT22;21757;43.610;1.440;2022-09-03T18:27:50;25.90;96.80
35635;DHT22;21757;43.610;1.440;2022-09-03T18:30:37;25.90;97.10
35635;DHT22;21757;43.610;1.440;2022-09-03T18:33:25;25.80;96.90
35635;DHT22;21757;43.610;1.440;2022-09-03T18:36:10;25.70;96.70
35635;DHT22;21757;43.610;1.440;2022-09-03T18:45:14;25.60;97.40
35635;DHT22;21757;43.610;1.440;2022-09-03T18:53:57;25.50;97.30
35635;DHT22;21757;43.610;1.440;2022-09-03T18:56:48;25.40;97.00
35635;DHT22;21757;43.610;1.440;2022-09-03T19:03:14;25.40;97.10
35635;DHT22;21757;43.610;1.440;2022-09-03T19:15:36;25.40;97.40
35635;DHT22;21757;43.610;1.440;2022-09-03T19:24:16;25.30;97.00
35635;DHT22;21757;43.610;1.440;2022-09-03T19:30:59;25.30;97.00
35635;DHT22;21757;43.610;1.440;2022-09-03T19:37:41;25.20;97.20
35635;DHT22;21757;43.610;1.440;2022-09-03T19:43:53;25.10;97.10
35635;DHT22;21757;43.610;1.440;2022-09-03T19:46:49;25.20;97.30
35635;DHT22;21757;43.610;1.440;2022-09-03T19:55:55;25.10;97.40
35635;DHT22;21757;43.610;1.440;2022-09-03T19:58:47;25.10;97.50
35635;DHT22;21757;43.610;1.440;2022-09-03T20:01:34;25.10;97.40
35635;DHT22;21757;43.610;1.440;2022-09-03T20:04:31;25.10;97.50
35635;DHT22;21757;43.610;1.440;2022-09-03T20:07:16;25.10;97.50
35635;DHT22;21757;43.610;1.440;2022-09-03T20:10:04;25.10;97.70
35635;DHT22;21757;43.610;1.440;2022-09-03T20:15:49;25.00;97.50
35635;DHT22;21757;43.610;1.440;2022-09-03T20:21:30;25.00;97.80
35635;DHT22;21757;43.610;1.440;2022-09-03T20:23:59;24.90;97.80
35635;DHT22;21757;43.610;1.440;2022-09-03T20:30:04;24.90;97.90
35635;DHT22;21757;43.610;1.440;2022-09-03T20:52:14;24.60;98.20
35635;DHT22;21757;43.610;1.440;2022-09-03T20:54:54;24.60;98.10
35635;DHT22;21757;43.610;1.440;2022-09-03T21:00:10;24.50;98.30
35635;DHT22;21757;43.610;1.440;2022-09-03T21:02:58;24.50;98.20
35635;DHT22;21757;43.610;1.440;2022-09-03T21:05:33;24.50;98.20
35635;DHT22;21757;43.610;1.440;2022-09-03T21:10:54;24.40;98.20
35635;DHT22;21757;43.610;1.440;2022-09-03T21:22:05;24.20;98.50
35635;DHT22;21757;43.610;1.440;2022-09-03T21:24:46;24.20;98.70
35635;DHT22;21757;43.610;1.440;2022-09-03T21:27:16;24.10;98.80
35635;DHT22;21757;43.610;1.440;2022-09-03T21:30:05;24.10;99.30
35635;DHT22;21757;43.610;1.440;2022-09-03T21:35:26;24.00;99.50
35635;DHT22;21757;43.610;1.440;2022-09-03T21:38:07;24.00;99.40
35635;DHT22;21757;43.610;1.440;2022-09-03T21:40:45;24.00;99.50
35635;DHT22;21757;43.610;1.440;2022-09-03T21:43:25;23.90;99.50
35635;DHT22;21757;43.610;1.440;2022-09-03T21:46:13;23.90;99.50
35635;DHT22;21757;43.610;1.440;2022-09-03T21:48:47;23.90;99.60
35635;DHT22;21757;43.610;1.440;2022-09-03T21:51:22;23.80;99.60
35635;DHT22;21757;43.610;1.440;2022-09-03T21:54:05;23.70;99.60
35635;DHT22;21757;43.610;1.440;2022-09-03T22:02:28;23.70;99.90
35635;DHT22;21757;43.610;1.440;2022-09-03T22:04:55;23.70;99.90
35635;DHT22;21757;43.610;1.440;2022-09-03T22:12:55;23.60;99.90
35635;DHT22;21757;43.610;1.440;2022-09-03T22:15:23;23.60;99.90
35635;DHT22;21757;43.610;1.440;2022-09-03T22:17:53;23.60;99.90
35635;DHT22;21757;43.610;1.440;2022-09-03T22:20:26;23.50;99.90
35635;DHT22;21757;43.610;1.440;2022-09-03T22:22:54;23.50;99.90
35635;DHT22;21757;43.610;1.440;2022-09-03T22:25:50;23.50;99.90
35635;DHT22;21757;43.610;1.440;2022-09-03T22:28:31;23.50;99.90
35635;DHT22;21757;43.610;1.440;2022-09-03T22:39:02;23.30;99.90
35635;DHT22;21757;43.610;1.440;2022-09-03T22:44:54;23.30;99.90
35635;DHT22;21757;43.610;1.440;2022-09-03T22:50:30;23.30;99.90
35635;DHT22;21757;43.610;1.440;2022-09-03T22:55:49;23.20;99.90
35635;DHT22;21757;43.610;1.440;2022-09-03T22:58:23;23.20;99.90
35635;DHT22;21757;43.610;1.440;2022-09-03T23:01:18;23.10;99.90
35635;DHT22;21757;43.610;1.440;2022-09-03T23:03:52;23.10;99.90
35635;DHT22;21757;43.610;1.440;2022-09-03T23:06:35;23.00;99.90
35635;DHT22;21757;43.610;1.440;2022-09-03T23:09:06;23.00;99.90
35635;DHT22;21757;43.610;1.440;2022-09-03T23:11:52;23.00;99.90
35635;DHT22;21757;43.610;1.440;2022-09-03T23:14:26;23.00;99.90